sensor_id;sensor_type;location;lat;lon;timestamp;P1;durP1;ratioP1;P2;durP2;ratioP2
6372;SDS011;3219;51.362;7.074;2022-10-31T00:00:53;17.48;;;8.70;;
6372;SDS011;3219;51.362;7.074;2022-10-31T00:03:20;20.10;;;9.35;;
6372;SDS011;3219;51.362;7.074;2022-10-31T00:05:47;21.58;;;9.07;;
6372;SDS011;3219;51.362;7.074;2022-10-31T00:08:15;15.43;;;8.88;;
6372;SDS011;3219;51.362;7.074;2022-10-31T00:10:42;16.50;;;9.38;;
6372;SDS011;3219;51.362;7.074;2022-10-31T00:13:10;16.88;;;8.35;;
6372;SDS011;3219;51.362;7.074;2022-10-31T00:15:38;15.20;;;8.80;;
6372;SDS011;3219;51.362;7.074;2022-10-31T00:18:07;17.65;;;8.68;;
6372;SDS011;3219;51.362;7.074;2022-10-31T00:20:35;13.70;;;8.50;;
6372;SDS011;3219;51.362;7.074;2022-10-31T00:23:02;17.77;;;8.50;;
6372;SDS011;3219;51.362;7.074;2022-10-31T00:25:32;13.90;;;8.32;;
6372;SDS011;3219;51.362;7.074;2022-10-31T00:27:59;14.02;;;8.57;;
6372;SDS011;3219;51.362;7.074;2022-10-31T00:30:26;15.05;;;8.50;;
6372;SDS011;3219;51.362;7.074;2022-10-31T00:32:53;12.20;;;8.27;;
6372;SDS011;3219;51.362;7.074;2022-10-31T00:35:22;13.88;;;8.23;;
6372;SDS011;3219;51.362;7.074;2022-10-31T00:37:49;15.30;;;9.43;;
6372;SDS011;3219;51.362;7.074;2022-10-31T00:40:16;16.10;;;8.95;;
6372;SDS011;3219;51.362;7.074;2022-10-31T00:42:43;14.18;;;9.50;;
6372;SDS011;3219;51.362;7.074;2022-10-31T00:45:10;14.70;;;9.40;;
6372;SDS011;3219;51.362;7.074;2022-10-31T00:47:37;15.52;;;9.45;;
6372;SDS011;3219;51.362;7.074;2022-10-31T00:50:05;16.85;;;9.25;;
6372;SDS011;3219;51.362;7.074;2022-10-31T00:52:34;18.25;;;9.73;;
6372;SDS011;3219;51.362;7.074;2022-10-31T00:55:01;13.35;;;9.75;;
6372;SDS011;3219;51.362;7.074;2022-10-31T00:57:28;16.10;;;9.30;;
6372;SDS011;3219;51.362;7.074;2022-10-31T00:59:55;23.45;;;10.10;;
6372;SDS011;3219;51.362;7.074;2022-10-31T01:02:22;16.67;;;9.77;;
6372;SDS011;3219;51.362;7.074;2022-10-31T01:04:49;15.55;;;10.40;;
6372;SDS011;3219;51.362;7.074;2022-10-31T01:07:16;15.32;;;10.02;;
6372;SDS011;3219;51.362;7.074;2022-10-31T01:09:44;15.35;;;9.63;;
6372;SDS011;3219;51.362;7.074;2022-10-31T01:12:11;15.90;;;8.68;;
6372;SDS011;3219;51.362;7.074;2022-10-31T01:14:42;18.50;;;9.45;;
6372;SDS011;3219;51.362;7.074;2022-10-31T01:17:09;10.70;;;8.95;;
6372;SDS011;3219;51.362;7.074;2022-10-31T01:19:36;14.00;;;9.27;;
6372;SDS011;3219;51.362;7.074;2022-10-31T01:22:03;14.82;;;8.75;;
6372;SDS011;3219;51.362;7.074;2022-10-31T01:24:30;13.75;;;8.98;;
6372;SDS011;3219;51.362;7.074;2022-10-31T01:26:59;15.35;;;9.40;;
6372;SDS011;3219;51.362;7.074;2022-10-31T01:29:26;17.77;;;10.18;;
6372;SDS011;3219;51.362;7.074;2022-10-31T01:31:53;17.48;;;8.50;;
6372;SDS011;3219;51.362;7.074;2022-10-31T01:34:20;15.00;;;8.95;;
6372;SDS011;3219;51.362;7.074;2022-10-31T01:36:47;11.05;;;7.72;;
6372;SDS011;3219;51.362;7.074;2022-10-31T01:39:16;15.93;;;9.10;;
6372;SDS011;3219;51.362;7.074;2022-10-31T01:41:44;15.40;;;9.48;;
6372;SDS011;3219;51.362;7.074;2022-10-31T01:46:59;12.52;;;8.95;;
6372;SDS011;3219;51.362;7.074;2022-10-31T01:49:29;14.90;;;9.07;;
6372;SDS011;3219;51.362;7.074;2022-10-31T01:52:00;13.63;;;8.55;;
6372;SDS011;3219;51.362;7.074;2022-10-31T01:54:29;14.05;;;8.43;;
6372;SDS011;3219;51.362;7.074;2022-10-31T01:56:57;12.85;;;8.77;;
6372;SDS011;3219;51.362;7.074;2022-10-31T01:59:26;17.92;;;9.10;;
6372;SDS011;3219;51.362;7.074;2022-10-31T02:01:54;15.25;;;9.43;;
6372;SDS011;3219;51.362;7.074;2022-10-31T02:04:23;18.42;;;8.68;;
6372;SDS011;3219;51.362;7.074;2022-10-31T02:06:53;16.30;;;9.30;;
6372;SDS011;3219;51.362;7.074;2022-10-31T02:09:21;14.20;;;9.15;;
6372;SDS011;3219;51.362;7.074;2022-10-31T02:11:49;15.30;;;9.07;;
6372;SDS011;3219;51.362;7.074;2022-10-31T02:14:18;15.68;;;8.95;;
6372;SDS011;3219;51.362;7.074;2022-10-31T02:16:45;18.15;;;9.48;;
6372;SDS011;3219;51.362;7.074;2022-10-31T02:19:13;13.15;;;8.30;;
6372;SDS011;3219;51.362;7.074;2022-10-31T02:21:44;15.45;;;9.63;;
6372;SDS011;3219;51.362;7.074;2022-10-31T02:24:40;15.43;;;9.55;;
6372;SDS011;3219;51.362;7.074;2022-10-31T02:27:12;17.58;;;10.13;;
6372;SDS011;3219;51.362;7.074;2022-10-31T02:32:27;16.23;;;9.65;;
6372;SDS011;3219;51.362;7.074;2022-10-31T02:34:58;21.35;;;9.75;;
6372;SDS011;3219;51.362;7.074;2022-10-31T02:37:27;19.30;;;9.20;;
6372;SDS011;3219;51.362;7.074;2022-10-31T02:39:58;17.95;;;9.75;;
6372;SDS011;3219;51.362;7.074;2022-10-31T02:42:29;19.17;;;10.73;;
6372;SDS011;3219;51.362;7.074;2022-10-31T02:45:00;15.90;;;9.60;;
6372;SDS011;3219;51.362;7.074;2022-10-31T02:47:32;14.98;;;9.63;;
6372;SDS011;3219;51.362;7.074;2022-10-31T02:50:01;20.67;;;10.32;;
6372;SDS011;3219;51.362;7.074;2022-10-31T02:52:30;17.45;;;9.65;;
6372;SDS011;3219;51.362;7.074;2022-10-31T02:54:57;15.65;;;9.25;;
6372;SDS011;3219;51.362;7.074;2022-10-31T02:57:25;14.30;;;10.10;;
6372;SDS011;3219;51.362;7.074;2022-10-31T02:59:53;16.10;;;9.48;;
6372;SDS011;3219;51.362;7.074;2022-10-31T03:02:24;18.42;;;10.98;;
6372;SDS011;3219;51.362;7.074;2022-10-31T03:04:59;21.08;;;11.13;;
6372;SDS011;3219;51.362;7.074;2022-10-31T03:07:31;15.82;;;10.23;;
6372;SDS011;3219;51.362;7.074;2022-10-31T03:10:03;16.88;;;10.73;;
6372;SDS011;3219;51.362;7.074;2022-10-31T03:12:33;19.27;;;10.63;;
6372;SDS011;3219;51.362;7.074;2022-10-31T03:15:07;16.17;;;9.68;;
6372;SDS011;3219;51.362;7.074;2022-10-31T03:17:38;17.45;;;10.10;;
6372;SDS011;3219;51.362;7.074;2022-10-31T03:20:08;14.52;;;10.13;;
6372;SDS011;3219;51.362;7.074;2022-10-31T03:22:37;16.23;;;10.93;;
6372;SDS011;3219;51.362;7.074;2022-10-31T03:25:06;16.15;;;10.68;;
6372;SDS011;3219;51.362;7.074;2022-10-31T03:27:34;14.90;;;10.85;;
6372;SDS011;3219;51.362;7.074;2022-10-31T03:30:03;18.75;;;11.80;;
6372;SDS011;3219;51.362;7.074;2022-10-31T03:32:33;17.45;;;11.88;;
6372;SDS011;3219;51.362;7.074;2022-10-31T03:35:01;17.38;;;12.05;;
6372;SDS011;3219;51.362;7.074;2022-10-31T03:37:32;18.00;;;12.25;;
6372;SDS011;3219;51.362;7.074;2022-10-31T03:39:59;17.05;;;12.52;;
6372;SDS011;3219;51.362;7.074;2022-10-31T03:42:27;19.48;;;12.93;;
6372;SDS011;3219;51.362;7.074;2022-10-31T03:44:56;19.35;;;12.00;;
6372;SDS011;3219;51.362;7.074;2022-10-31T03:47:25;16.33;;;11.05;;
6372;SDS011;3219;51.362;7.074;2022-10-31T03:49:52;15.15;;;10.98;;
6372;SDS011;3219;51.362;7.074;2022-10-31T03:52:22;23.30;;;13.30;;
6372;SDS011;3219;51.362;7.074;2022-10-31T03:54:54;18.92;;;12.95;;
6372;SDS011;3219;51.362;7.074;2022-10-31T03:57:22;21.88;;;12.48;;
6372;SDS011;3219;51.362;7.074;2022-10-31T03:59:51;21.80;;;12.68;;
6372;SDS011;3219;51.362;7.074;2022-10-31T04:02:21;19.58;;;12.07;;
6372;SDS011;3219;51.362;7.074;2022-10-31T04:04:49;21.70;;;13.05;;
6372;SDS011;3219;51.362;7.074;2022-10-31T04:07:16;22.33;;;13.00;;
6372;SDS011;3219;51.362;7.074;2022-10-31T04:09:45;24.83;;;13.30;;
6372;SDS011;3219;51.362;7.074;2022-10-31T04:12:14;20.83;;;14.02;;
6372;SDS011;3219;51.362;7.074;2022-10-31T04:14:42;17.85;;;12.60;;
6372;SDS011;3219;51.362;7.074;2022-10-31T04:17:11;20.10;;;12.57;;
6372;SDS011;3219;51.362;7.074;2022-10-31T04:19:39;15.50;;;11.48;;
6372;SDS011;3219;51.362;7.074;2022-10-31T04:22:06;25.88;;;12.90;;
6372;SDS011;3219;51.362;7.074;2022-10-31T04:24:33;24.13;;;12.18;;
6372;SDS011;3219;51.362;7.074;2022-10-31T04:27:00;18.35;;;11.10;;
6372;SDS011;3219;51.362;7.074;2022-10-31T04:29:29;20.98;;;12.88;;
6372;SDS011;3219;51.362;7.074;2022-10-31T04:31:56;17.90;;;11.98;;
6372;SDS011;3219;51.362;7.074;2022-10-31T04:34:23;22.00;;;13.20;;
6372;SDS011;3219;51.362;7.074;2022-10-31T04:36:50;22.20;;;12.73;;
6372;SDS011;3219;51.362;7.074;2022-10-31T04:39:17;23.95;;;12.80;;
6372;SDS011;3219;51.362;7.074;2022-10-31T04:41:44;26.55;;;13.65;;
6372;SDS011;3219;51.362;7.074;2022-10-31T04:44:11;24.15;;;13.02;;
6372;SDS011;3219;51.362;7.074;2022-10-31T04:46:40;21.38;;;13.52;;
6372;SDS011;3219;51.362;7.074;2022-10-31T04:49:07;21.05;;;13.57;;
6372;SDS011;3219;51.362;7.074;2022-10-31T04:51:34;18.05;;;12.43;;
6372;SDS011;3219;51.362;7.074;2022-10-31T04:54:01;19.75;;;12.77;;
6372;SDS011;3219;51.362;7.074;2022-10-31T04:56:28;19.60;;;12.80;;
6372;SDS011;3219;51.362;7.074;2022-10-31T04:58:55;21.70;;;12.95;;
6372;SDS011;3219;51.362;7.074;2022-10-31T05:01:22;26.35;;;14.32;;
6372;SDS011;3219;51.362;7.074;2022-10-31T05:03:51;24.05;;;13.18;;
6372;SDS011;3219;51.362;7.074;2022-10-31T05:06:18;20.77;;;13.98;;
6372;SDS011;3219;51.362;7.074;2022-10-31T05:08:45;16.23;;;12.70;;
6372;SDS011;3219;51.362;7.074;2022-10-31T05:11:12;24.35;;;14.05;;
6372;SDS011;3219;51.362;7.074;2022-10-31T05:13:39;24.05;;;14.27;;
6372;SDS011;3219;51.362;7.074;2022-10-31T05:16:06;20.40;;;13.88;;
6372;SDS011;3219;51.362;7.074;2022-10-31T05:18:33;24.23;;;15.45;;
6372;SDS011;3219;51.362;7.074;2022-10-31T05:21:02;27.15;;;15.50;;
6372;SDS011;3219;51.362;7.074;2022-10-31T05:23:29;19.73;;;14.20;;
6372;SDS011;3219;51.362;7.074;2022-10-31T05:25:56;23.73;;;14.75;;
6372;SDS011;3219;51.362;7.074;2022-10-31T05:28:23;22.05;;;15.23;;
6372;SDS011;3219;51.362;7.074;2022-10-31T05:30:50;21.52;;;15.23;;
6372;SDS011;3219;51.362;7.074;2022-10-31T05:33:18;22.13;;;15.10;;
6372;SDS011;3219;51.362;7.074;2022-10-31T05:35:45;25.92;;;16.63;;
6372;SDS011;3219;51.362;7.074;2022-10-31T05:38:13;24.67;;;15.40;;
6372;SDS011;3219;51.362;7.074;2022-10-31T05:40:40;26.90;;;17.75;;
6372;SDS011;3219;51.362;7.074;2022-10-31T05:43:07;29.80;;;17.83;;
6372;SDS011;3219;51.362;7.074;2022-10-31T05:45:34;28.58;;;17.42;;
6372;SDS011;3219;51.362;7.074;2022-10-31T05:48:02;25.40;;;17.25;;
6372;SDS011;3219;51.362;7.074;2022-10-31T05:50:30;27.13;;;18.92;;
6372;SDS011;3219;51.362;7.074;2022-10-31T05:52:58;25.13;;;18.77;;
6372;SDS011;3219;51.362;7.074;2022-10-31T05:55:27;24.92;;;18.20;;
6372;SDS011;3219;51.362;7.074;2022-10-31T05:57:54;33.58;;;18.08;;
6372;SDS011;3219;51.362;7.074;2022-10-31T06:00:22;23.20;;;18.17;;
6372;SDS011;3219;51.362;7.074;2022-10-31T06:02:49;33.38;;;19.50;;
6372;SDS011;3219;51.362;7.074;2022-10-31T06:05:16;28.80;;;18.85;;
6372;SDS011;3219;51.362;7.074;2022-10-31T06:07:43;28.60;;;18.60;;
6372;SDS011;3219;51.362;7.074;2022-10-31T06:10:10;27.02;;;18.73;;
6372;SDS011;3219;51.362;7.074;2022-10-31T06:12:39;29.65;;;17.40;;
6372;SDS011;3219;51.362;7.074;2022-10-31T06:15:06;28.77;;;18.63;;
6372;SDS011;3219;51.362;7.074;2022-10-31T06:17:33;25.83;;;18.77;;
6372;SDS011;3219;51.362;7.074;2022-10-31T06:20:00;31.75;;;18.52;;
6372;SDS011;3219;51.362;7.074;2022-10-31T06:22:27;30.67;;;19.20;;
6372;SDS011;3219;51.362;7.074;2022-10-31T06:24:55;31.20;;;19.95;;
6372;SDS011;3219;51.362;7.074;2022-10-31T06:27:22;32.13;;;20.95;;
6372;SDS011;3219;51.362;7.074;2022-10-31T06:29:50;30.35;;;20.23;;
6372;SDS011;3219;51.362;7.074;2022-10-31T06:32:17;31.55;;;19.98;;
6372;SDS011;3219;51.362;7.074;2022-10-31T06:34:45;31.88;;;21.40;;
6372;SDS011;3219;51.362;7.074;2022-10-31T06:37:13;31.83;;;19.63;;
6372;SDS011;3219;51.362;7.074;2022-10-31T06:39:40;28.17;;;19.80;;
6372;SDS011;3219;51.362;7.074;2022-10-31T06:42:07;29.63;;;20.42;;
6372;SDS011;3219;51.362;7.074;2022-10-31T06:44:34;26.40;;;19.15;;
6372;SDS011;3219;51.362;7.074;2022-10-31T06:47:02;33.47;;;21.70;;
6372;SDS011;3219;51.362;7.074;2022-10-31T06:49:29;31.50;;;20.02;;
6372;SDS011;3219;51.362;7.074;2022-10-31T06:51:56;29.98;;;20.58;;
6372;SDS011;3219;51.362;7.074;2022-10-31T06:54:24;30.27;;;20.63;;
6372;SDS011;3219;51.362;7.074;2022-10-31T06:56:51;27.50;;;21.58;;
6372;SDS011;3219;51.362;7.074;2022-10-31T06:59:18;30.83;;;21.48;;
6372;SDS011;3219;51.362;7.074;2022-10-31T07:01:45;27.70;;;20.33;;
6372;SDS011;3219;51.362;7.074;2022-10-31T07:04:13;33.80;;;22.58;;
6372;SDS011;3219;51.362;7.074;2022-10-31T07:06:40;33.55;;;22.48;;
6372;SDS011;3219;51.362;7.074;2022-10-31T07:09:08;30.10;;;21.05;;
6372;SDS011;3219;51.362;7.074;2022-10-31T07:11:35;30.08;;;22.33;;
6372;SDS011;3219;51.362;7.074;2022-10-31T07:14:02;32.85;;;20.73;;
6372;SDS011;3219;51.362;7.074;2022-10-31T07:16:29;34.05;;;24.05;;
6372;SDS011;3219;51.362;7.074;2022-10-31T07:18:56;31.10;;;20.75;;
6372;SDS011;3219;51.362;7.074;2022-10-31T07:21:24;31.10;;;20.00;;
6372;SDS011;3219;51.362;7.074;2022-10-31T07:23:51;31.27;;;21.20;;
6372;SDS011;3219;51.362;7.074;2022-10-31T07:26:19;33.30;;;22.40;;
6372;SDS011;3219;51.362;7.074;2022-10-31T07:28:46;31.92;;;20.02;;
6372;SDS011;3219;51.362;7.074;2022-10-31T07:31:13;30.25;;;19.75;;
6372;SDS011;3219;51.362;7.074;2022-10-31T07:33:40;30.63;;;20.58;;
6372;SDS011;3219;51.362;7.074;2022-10-31T07:36:07;30.90;;;19.58;;
6372;SDS011;3219;51.362;7.074;2022-10-31T07:38:36;30.05;;;20.80;;
6372;SDS011;3219;51.362;7.074;2022-10-31T07:41:03;31.63;;;20.77;;
6372;SDS011;3219;51.362;7.074;2022-10-31T07:43:30;34.25;;;19.75;;
6372;SDS011;3219;51.362;7.074;2022-10-31T07:45:57;29.75;;;21.02;;
6372;SDS011;3219;51.362;7.074;2022-10-31T07:48:24;27.60;;;20.70;;
6372;SDS011;3219;51.362;7.074;2022-10-31T07:50:51;34.28;;;21.55;;
6372;SDS011;3219;51.362;7.074;2022-10-31T07:53:18;31.83;;;21.27;;
6372;SDS011;3219;51.362;7.074;2022-10-31T07:55:47;32.30;;;21.48;;
6372;SDS011;3219;51.362;7.074;2022-10-31T07:58:14;34.08;;;21.60;;
6372;SDS011;3219;51.362;7.074;2022-10-31T08:00:42;30.38;;;20.25;;
6372;SDS011;3219;51.362;7.074;2022-10-31T08:03:10;37.33;;;23.08;;
6372;SDS011;3219;51.362;7.074;2022-10-31T08:05:38;29.52;;;21.33;;
6372;SDS011;3219;51.362;7.074;2022-10-31T08:08:05;36.35;;;21.67;;
6372;SDS011;3219;51.362;7.074;2022-10-31T08:10:33;31.80;;;21.80;;
6372;SDS011;3219;51.362;7.074;2022-10-31T08:13:02;28.80;;;20.20;;
6372;SDS011;3219;51.362;7.074;2022-10-31T08:15:30;27.60;;;19.60;;
6372;SDS011;3219;51.362;7.074;2022-10-31T08:17:58;31.98;;;20.25;;
6372;SDS011;3219;51.362;7.074;2022-10-31T08:20:27;31.40;;;20.13;;
6372;SDS011;3219;51.362;7.074;2022-10-31T08:22:54;32.28;;;19.83;;
6372;SDS011;3219;51.362;7.074;2022-10-31T08:25:22;27.15;;;18.90;;
6372;SDS011;3219;51.362;7.074;2022-10-31T08:27:49;29.48;;;19.02;;
6372;SDS011;3219;51.362;7.074;2022-10-31T08:30:18;24.20;;;17.60;;
6372;SDS011;3219;51.362;7.074;2022-10-31T08:32:46;29.45;;;18.85;;
6372;SDS011;3219;51.362;7.074;2022-10-31T08:35:13;31.65;;;21.83;;
6372;SDS011;3219;51.362;7.074;2022-10-31T08:37:40;39.75;;;23.92;;
6372;SDS011;3219;51.362;7.074;2022-10-31T08:40:08;34.17;;;23.20;;
6372;SDS011;3219;51.362;7.074;2022-10-31T08:42:36;40.47;;;23.70;;
6372;SDS011;3219;51.362;7.074;2022-10-31T08:45:03;41.42;;;25.30;;
6372;SDS011;3219;51.362;7.074;2022-10-31T08:47:31;46.03;;;25.52;;
6372;SDS011;3219;51.362;7.074;2022-10-31T08:49:58;34.42;;;23.33;;
6372;SDS011;3219;51.362;7.074;2022-10-31T08:52:25;38.10;;;21.67;;
6372;SDS011;3219;51.362;7.074;2022-10-31T08:54:53;34.47;;;21.75;;
6372;SDS011;3219;51.362;7.074;2022-10-31T08:57:20;42.58;;;23.42;;
6372;SDS011;3219;51.362;7.074;2022-10-31T08:59:47;38.90;;;23.08;;
6372;SDS011;3219;51.362;7.074;2022-10-31T09:02:14;42.50;;;25.38;;
6372;SDS011;3219;51.362;7.074;2022-10-31T09:04:42;35.70;;;22.75;;
6372;SDS011;3219;51.362;7.074;2022-10-31T09:07:09;29.77;;;20.33;;
6372;SDS011;3219;51.362;7.074;2022-10-31T09:09:36;40.28;;;23.83;;
6372;SDS011;3219;51.362;7.074;2022-10-31T09:12:03;35.25;;;22.38;;
6372;SDS011;3219;51.362;7.074;2022-10-31T09:14:30;28.95;;;19.42;;
6372;SDS011;3219;51.362;7.074;2022-10-31T09:16:57;33.13;;;21.55;;
6372;SDS011;3219;51.362;7.074;2022-10-31T09:19:25;31.58;;;20.75;;
6372;SDS011;3219;51.362;7.074;2022-10-31T09:21:53;34.25;;;20.00;;
6372;SDS011;3219;51.362;7.074;2022-10-31T09:24:21;29.67;;;20.48;;
6372;SDS011;3219;51.362;7.074;2022-10-31T09:26:48;29.13;;;19.70;;
6372;SDS011;3219;51.362;7.074;2022-10-31T09:29:15;32.30;;;19.58;;
6372;SDS011;3219;51.362;7.074;2022-10-31T09:31:42;27.17;;;17.67;;
6372;SDS011;3219;51.362;7.074;2022-10-31T09:34:09;26.02;;;17.60;;
6372;SDS011;3219;51.362;7.074;2022-10-31T09:36:36;24.80;;;16.55;;
6372;SDS011;3219;51.362;7.074;2022-10-31T09:39:05;26.05;;;17.38;;
6372;SDS011;3219;51.362;7.074;2022-10-31T09:41:45;28.13;;;17.75;;
6372;SDS011;3219;51.362;7.074;2022-10-31T09:44:15;33.03;;;18.45;;
6372;SDS011;3219;51.362;7.074;2022-10-31T09:46:48;34.15;;;18.08;;
6372;SDS011;3219;51.362;7.074;2022-10-31T09:49:25;33.03;;;17.95;;
6372;SDS011;3219;51.362;7.074;2022-10-31T09:51:57;33.42;;;18.52;;
6372;SDS011;3219;51.362;7.074;2022-10-31T09:54:29;37.00;;;19.05;;
6372;SDS011;3219;51.362;7.074;2022-10-31T09:56:56;27.58;;;16.55;;
6372;SDS011;3219;51.362;7.074;2022-10-31T09:59:25;28.45;;;19.38;;
6372;SDS011;3219;51.362;7.074;2022-10-31T10:01:55;31.67;;;20.63;;
6372;SDS011;3219;51.362;7.074;2022-10-31T10:04:28;31.15;;;20.48;;
6372;SDS011;3219;51.362;7.074;2022-10-31T10:06:56;33.42;;;19.88;;
6372;SDS011;3219;51.362;7.074;2022-10-31T10:09:26;28.15;;;18.13;;
6372;SDS011;3219;51.362;7.074;2022-10-31T10:11:58;43.67;;;22.27;;
6372;SDS011;3219;51.362;7.074;2022-10-31T10:14:32;32.47;;;18.42;;
6372;SDS011;3219;51.362;7.074;2022-10-31T10:17:05;31.48;;;19.92;;
6372;SDS011;3219;51.362;7.074;2022-10-31T10:19:42;32.47;;;19.10;;
6372;SDS011;3219;51.362;7.074;2022-10-31T10:22:12;29.63;;;18.15;;
6372;SDS011;3219;51.362;7.074;2022-10-31T10:24:44;26.58;;;16.08;;
6372;SDS011;3219;51.362;7.074;2022-10-31T10:27:21;28.65;;;15.93;;
6372;SDS011;3219;51.362;7.074;2022-10-31T10:29:52;29.17;;;15.48;;
6372;SDS011;3219;51.362;7.074;2022-10-31T10:32:22;26.70;;;15.80;;
6372;SDS011;3219;51.362;7.074;2022-10-31T10:34:50;28.33;;;14.93;;
6372;SDS011;3219;51.362;7.074;2022-10-31T10:37:24;27.58;;;14.93;;
6372;SDS011;3219;51.362;7.074;2022-10-31T10:39:53;23.35;;;14.57;;
6372;SDS011;3219;51.362;7.074;2022-10-31T10:42:23;33.00;;;14.65;;
6372;SDS011;3219;51.362;7.074;2022-10-31T10:45:13;19.88;;;12.52;;
6372;SDS011;3219;51.362;7.074;2022-10-31T10:47:59;24.63;;;13.00;;
6372;SDS011;3219;51.362;7.074;2022-10-31T10:50:31;31.70;;;12.70;;
6372;SDS011;3219;51.362;7.074;2022-10-31T10:53:01;22.70;;;12.80;;
6372;SDS011;3219;51.362;7.074;2022-10-31T10:55:35;24.58;;;12.63;;
6372;SDS011;3219;51.362;7.074;2022-10-31T10:58:06;20.38;;;11.85;;
6372;SDS011;3219;51.362;7.074;2022-10-31T11:00:34;26.02;;;12.02;;
6372;SDS011;3219;51.362;7.074;2022-10-31T11:03:02;22.65;;;11.00;;
6372;SDS011;3219;51.362;7.074;2022-10-31T11:05:33;24.20;;;11.27;;
6372;SDS011;3219;51.362;7.074;2022-10-31T11:08:00;20.70;;;9.63;;
6372;SDS011;3219;51.362;7.074;2022-10-31T11:10:27;20.63;;;10.60;;
6372;SDS011;3219;51.362;7.074;2022-10-31T11:13:00;15.68;;;8.60;;
6372;SDS011;3219;51.362;7.074;2022-10-31T11:15:29;19.83;;;9.15;;
6372;SDS011;3219;51.362;7.074;2022-10-31T11:17:57;25.27;;;8.85;;
6372;SDS011;3219;51.362;7.074;2022-10-31T11:20:29;24.02;;;9.25;;
6372;SDS011;3219;51.362;7.074;2022-10-31T11:23:04;14.38;;;8.10;;
6372;SDS011;3219;51.362;7.074;2022-10-31T11:25:31;17.08;;;8.73;;
6372;SDS011;3219;51.362;7.074;2022-10-31T11:27:59;15.43;;;8.10;;
6372;SDS011;3219;51.362;7.074;2022-10-31T11:30:26;16.77;;;8.05;;
6372;SDS011;3219;51.362;7.074;2022-10-31T11:32:54;15.73;;;7.80;;
6372;SDS011;3219;51.362;7.074;2022-10-31T11:35:23;16.88;;;7.90;;
6372;SDS011;3219;51.362;7.074;2022-10-31T11:37:51;17.23;;;8.02;;
6372;SDS011;3219;51.362;7.074;2022-10-31T11:40:20;21.05;;;7.88;;
6372;SDS011;3219;51.362;7.074;2022-10-31T11:42:47;21.73;;;8.02;;
6372;SDS011;3219;51.362;7.074;2022-10-31T11:45:16;21.42;;;9.00;;
6372;SDS011;3219;51.362;7.074;2022-10-31T11:47:44;20.05;;;8.45;;
6372;SDS011;3219;51.362;7.074;2022-10-31T11:50:18;13.32;;;7.30;;
6372;SDS011;3219;51.362;7.074;2022-10-31T11:52:45;18.80;;;8.40;;
6372;SDS011;3219;51.362;7.074;2022-10-31T11:55:16;24.73;;;7.53;;
6372;SDS011;3219;51.362;7.074;2022-10-31T11:57:44;15.95;;;6.53;;
6372;SDS011;3219;51.362;7.074;2022-10-31T12:00:20;13.00;;;6.97;;
6372;SDS011;3219;51.362;7.074;2022-10-31T12:02:48;13.80;;;6.53;;
6372;SDS011;3219;51.362;7.074;2022-10-31T12:05:18;15.45;;;6.63;;
6372;SDS011;3219;51.362;7.074;2022-10-31T12:07:46;13.88;;;6.18;;
6372;SDS011;3219;51.362;7.074;2022-10-31T12:10:14;19.70;;;6.60;;
6372;SDS011;3219;51.362;7.074;2022-10-31T12:12:44;22.25;;;6.35;;
6372;SDS011;3219;51.362;7.074;2022-10-31T12:15:20;12.48;;;5.45;;
6372;SDS011;3219;51.362;7.074;2022-10-31T12:17:52;8.10;;;4.88;;
6372;SDS011;3219;51.362;7.074;2022-10-31T12:20:24;13.75;;;5.82;;
6372;SDS011;3219;51.362;7.074;2022-10-31T12:22:56;9.82;;;4.85;;
6372;SDS011;3219;51.362;7.074;2022-10-31T12:25:29;15.65;;;5.00;;
6372;SDS011;3219;51.362;7.074;2022-10-31T12:28:02;16.30;;;5.15;;
6372;SDS011;3219;51.362;7.074;2022-10-31T12:30:33;10.00;;;4.78;;
6372;SDS011;3219;51.362;7.074;2022-10-31T12:33:09;12.30;;;4.47;;
6372;SDS011;3219;51.362;7.074;2022-10-31T12:35:42;15.40;;;4.65;;
6372;SDS011;3219;51.362;7.074;2022-10-31T12:38:26;12.38;;;5.10;;
6372;SDS011;3219;51.362;7.074;2022-10-31T12:40:59;14.38;;;4.20;;
6372;SDS011;3219;51.362;7.074;2022-10-31T12:43:34;12.30;;;4.35;;
6372;SDS011;3219;51.362;7.074;2022-10-31T12:46:02;10.40;;;4.63;;
6372;SDS011;3219;51.362;7.074;2022-10-31T12:51:27;10.02;;;4.40;;
6372;SDS011;3219;51.362;7.074;2022-10-31T12:53:59;14.52;;;4.50;;
6372;SDS011;3219;51.362;7.074;2022-10-31T12:56:32;12.40;;;5.03;;
6372;SDS011;3219;51.362;7.074;2022-10-31T12:59:03;13.25;;;4.15;;
6372;SDS011;3219;51.362;7.074;2022-10-31T13:01:34;12.00;;;3.80;;
6372;SDS011;3219;51.362;7.074;2022-10-31T13:04:03;14.20;;;4.20;;
6372;SDS011;3219;51.362;7.074;2022-10-31T13:06:35;12.02;;;4.60;;
6372;SDS011;3219;51.362;7.074;2022-10-31T13:09:05;8.98;;;4.13;;
6372;SDS011;3219;51.362;7.074;2022-10-31T13:11:34;11.55;;;4.10;;
6372;SDS011;3219;51.362;7.074;2022-10-31T13:14:02;10.88;;;3.42;;
6372;SDS011;3219;51.362;7.074;2022-10-31T13:16:34;9.05;;;3.97;;
6372;SDS011;3219;51.362;7.074;2022-10-31T13:19:03;11.15;;;4.15;;
6372;SDS011;3219;51.362;7.074;2022-10-31T13:21:35;13.98;;;4.18;;
6372;SDS011;3219;51.362;7.074;2022-10-31T13:24:03;11.80;;;4.78;;
6372;SDS011;3219;51.362;7.074;2022-10-31T13:26:34;13.95;;;4.80;;
6372;SDS011;3219;51.362;7.074;2022-10-31T13:29:03;17.23;;;4.63;;
6372;SDS011;3219;51.362;7.074;2022-10-31T13:31:33;10.38;;;4.38;;
6372;SDS011;3219;51.362;7.074;2022-10-31T13:34:01;12.05;;;4.13;;
6372;SDS011;3219;51.362;7.074;2022-10-31T13:36:31;19.17;;;4.72;;
6372;SDS011;3219;51.362;7.074;2022-10-31T13:39:03;16.83;;;4.57;;
6372;SDS011;3219;51.362;7.074;2022-10-31T13:41:38;13.15;;;4.38;;
6372;SDS011;3219;51.362;7.074;2022-10-31T13:44:10;13.70;;;4.15;;
6372;SDS011;3219;51.362;7.074;2022-10-31T13:46:39;13.10;;;4.38;;
6372;SDS011;3219;51.362;7.074;2022-10-31T13:49:21;12.93;;;4.40;;
6372;SDS011;3219;51.362;7.074;2022-10-31T13:51:50;11.82;;;4.00;;
6372;SDS011;3219;51.362;7.074;2022-10-31T13:54:22;15.98;;;4.32;;
6372;SDS011;3219;51.362;7.074;2022-10-31T13:56:50;10.80;;;4.32;;
6372;SDS011;3219;51.362;7.074;2022-10-31T13:59:18;11.35;;;3.72;;
6372;SDS011;3219;51.362;7.074;2022-10-31T14:01:46;6.80;;;3.85;;
6372;SDS011;3219;51.362;7.074;2022-10-31T14:04:15;13.27;;;4.90;;
6372;SDS011;3219;51.362;7.074;2022-10-31T14:06:45;9.40;;;3.58;;
6372;SDS011;3219;51.362;7.074;2022-10-31T14:09:17;13.15;;;4.13;;
6372;SDS011;3219;51.362;7.074;2022-10-31T14:11:46;9.30;;;3.90;;
6372;SDS011;3219;51.362;7.074;2022-10-31T14:14:14;9.57;;;3.90;;
6372;SDS011;3219;51.362;7.074;2022-10-31T14:16:42;16.77;;;4.00;;
6372;SDS011;3219;51.362;7.074;2022-10-31T14:19:13;11.27;;;4.38;;
6372;SDS011;3219;51.362;7.074;2022-10-31T14:21:42;13.77;;;4.38;;
6372;SDS011;3219;51.362;7.074;2022-10-31T14:24:13;11.93;;;3.88;;
6372;SDS011;3219;51.362;7.074;2022-10-31T14:26:51;12.15;;;4.43;;
6372;SDS011;3219;51.362;7.074;2022-10-31T14:29:21;12.55;;;4.20;;
6372;SDS011;3219;51.362;7.074;2022-10-31T14:31:51;15.70;;;4.35;;
6372;SDS011;3219;51.362;7.074;2022-10-31T14:34:21;14.35;;;4.30;;
6372;SDS011;3219;51.362;7.074;2022-10-31T14:36:56;11.00;;;4.15;;
6372;SDS011;3219;51.362;7.074;2022-10-31T14:39:26;18.98;;;4.97;;
6372;SDS011;3219;51.362;7.074;2022-10-31T14:42:00;10.52;;;3.92;;
6372;SDS011;3219;51.362;7.074;2022-10-31T14:44:43;11.05;;;4.30;;
6372;SDS011;3219;51.362;7.074;2022-10-31T14:47:16;9.35;;;3.83;;
6372;SDS011;3219;51.362;7.074;2022-10-31T14:54:54;10.82;;;4.65;;
6372;SDS011;3219;51.362;7.074;2022-10-31T14:57:24;14.32;;;4.82;;
6372;SDS011;3219;51.362;7.074;2022-10-31T14:59:53;20.38;;;4.97;;
6372;SDS011;3219;51.362;7.074;2022-10-31T15:02:22;9.18;;;4.35;;
6372;SDS011;3219;51.362;7.074;2022-10-31T15:04:51;14.00;;;4.68;;
6372;SDS011;3219;51.362;7.074;2022-10-31T15:07:19;18.30;;;4.85;;
6372;SDS011;3219;51.362;7.074;2022-10-31T15:09:54;13.95;;;5.05;;
6372;SDS011;3219;51.362;7.074;2022-10-31T15:12:24;15.73;;;4.82;;
6372;SDS011;3219;51.362;7.074;2022-10-31T15:14:51;15.27;;;5.07;;
6372;SDS011;3219;51.362;7.074;2022-10-31T15:17:18;11.80;;;4.20;;